Relevés horaires Kleine Brogel (Belgique)


Relevés horaires à Kleine Brogel - Mercredi 27 Mai 2020
Heure UTC1 Température [°C] Vent [km/h] Hum. [%] Pres.4 [hPa] Visi. [Km] Nébu. [octa] Préc.5 [mm] Cond.
2m. Res. Ros. Dir.2 Vit. Moy. Raf.3
21:00 15.1 15.1 8.0 NNO 3.7 -- 11.1 63 1033.2(1.1/3h) 20 -- -- --
20:00 16.7 16.7 9.2 NNO 3.7 -- 11.1 61 1032.7(0.6/3h) 20 -- -- --
19:00 19.1 19.1 4.8 N 5.6 -- 11.1 39 1032.2(0.0/3h) 20 -- -- --
18:00 20.4 20.4 4.4 N 7.4 -- 16.7 35 1032(-0.3/3h) 20 -- -- --
17:00 21.2 21.2 6.5 NNO 7.4 -- 14.8 38 1032(-0.3/3h) 20 -- -- --
16:00 22.7 22.7 8.4 N 9.3 -- 16.7 40 1032.2(-0.4/3h) 20 -- -- --
15:00 23.4 23.4 8.3 N 7.4 -- 14.8 38 1032.2(-0.8/3h) 20 -- -- --
14:00 23.5 23.5 8.0 ONO 5.6 -- 13.0 37 1032.2(-0.9/3h) 20 -- -- --
13:00 23.5 23.5 9.4 NNO 3.7 -- 11.1 41 1032.5(-0.8/3h) 20 -- -- --
12:00 22.0 22.0 9.3 NNO 5.6 -- 11.1 44 1033(-0.6/3h) 19 -- -- --
11:00 23.0 23.0 9.3 ONO 3.7 -- 11.1 42 1033.2(-0.5/3h) 19 -- -- --
10:00 22.6 22.6 9.2 NNO 3.7 -- 7.4 42 1033.5(-0.5/3h) 19 -- -- --
09:00 20.9 20.9 10.0 NNO 3.7 -- 7.4 50 1033.7(-0.2/3h) 18 -- -- --
08:00 18.8 18.8 10.8 NNO 1.9 -- 5.6 60 1033.9(-0.1/3h) 10 -- -- --
07:00 16.3 16.3 11.2 NNO 1.9 -- 3.7 72 1034(0.2/3h) 12 -- -- --
06:00 13.6 13.6 10.2 NNO 1.9 -- 3.7 80 1034.2(0.5/3h) 10 -- -- --
05:00 10.8 10.8 9.2 NNO 1.9 -- 1.9 90 1034.2(0.3/3h) 8 -- -- --
04:00 9.5 9.5 8.4 NNO 1.9 -- 0.0 93 1034(0.1/3h) 7 -- -- --
03:00 9.6 9.6 8.4 NNO 1.9 -- 0.0 92 1033.9(-0.4/3h) 10 -- -- --
02:00 10.3 10.3 8.5 NNO 1.9 -- 0.0 89 1033.9(-0.6/3h) 14 -- -- --
01:00 10.6 10.6 8.5 NNO 1.9 -- 0.0 87 1034(-0.4/3h) 19 -- -- --
00:00 11.5 11.5 8.7 NNO 1.9 -- 9.3 83 1034.2(0.0/3h) 19 -- -- --

1 Coordinated Universal Time. Actuellement il est 00:00 locale et 22:00 UTC.

2 Le vent souffle depuis la direction indiquée vers la direction oposée.

3 Les rafales max. sont disponible 40 min après l'heure du relevé.

4 Pour les stations d'altitude (plus de 600m) le géopotentiel du niveau le plus proche de la pression obligatoire est indiqué.

5 Les stations disposant d'un diffuseur peuvent indiquer "trace". Cela signifie que des précipitations ont touchés le sol mais que la quantité est inférieure à 0.1 mm.

Récapitulatif de la journée
Température [°C] Vent [km/h] Ensoleillement4 [h] Precipitations totale5 [mm] Pression [Hpa]
Min1 Max.2 Moy.3 Max. Min Max.
9.1 24.7 0 16.7 0 h 0 min 0 1032.0 1034.2

1 Température minimale relevée entre 18:00 UTC la veille et 18:00 UTC le jour donné.

2 Température maximale relevée entre 06:00 UTC le jour donné et 06:00 UTC le lendemain.

3 Vent moyen de la journée basé sur les relevés horaires.

4 Ensoleillement en heures relevé entre 06:00 UTC la veille et 06:00 UTC le jour donné.

5 Précipitations totales tombées entre 06:00 UTC la jour donné et 06:00 UTC le lendemain.

Graphiques horaires